sensor_id;sensor_type;location;lat;lon;timestamp;pressure;altitude;pressure_sealevel;temperature;humidity
35888;BME280;21990;42.540;23.496;2022-12-07T00:01:13;93480.25;;;4.78;99.08
35888;BME280;21990;42.540;23.496;2022-12-07T00:03:41;93481.81;;;4.85;98.60
35888;BME280;21990;42.540;23.496;2022-12-07T00:06:09;93477.16;;;4.70;98.40
35888;BME280;21990;42.540;23.496;2022-12-07T00:08:35;93489.75;;;4.60;99.08
35888;BME280;21990;42.540;23.496;2022-12-07T00:11:07;93494.66;;;4.71;99.55
35888;BME280;21990;42.540;23.496;2022-12-07T00:13:33;93497.72;;;4.73;99.04
35888;BME280;21990;42.540;23.496;2022-12-07T00:16:07;93479.66;;;4.68;99.15
35888;BME280;21990;42.540;23.496;2022-12-07T00:18:33;93497.66;;;4.67;99.93
35888;BME280;21990;42.540;23.496;2022-12-07T00:21:00;93488.13;;;4.79;99.59
35888;BME280;21990;42.540;23.496;2022-12-07T00:23:26;93487.94;;;4.89;98.97
35888;BME280;21990;42.540;23.496;2022-12-07T00:25:51;93479.31;;;4.92;98.73
35888;BME280;21990;42.540;23.496;2022-12-07T00:28:17;93493.81;;;4.96;98.55
35888;BME280;21990;42.540;23.496;2022-12-07T00:30:42;93491.56;;;5.00;98.22
35888;BME280;21990;42.540;23.496;2022-12-07T00:33:08;93494.09;;;5.04;98.18
35888;BME280;21990;42.540;23.496;2022-12-07T00:35:33;93496.66;;;5.07;98.02
35888;BME280;21990;42.540;23.496;2022-12-07T00:37:59;93490.06;;;5.10;97.81
35888;BME280;21990;42.540;23.496;2022-12-07T00:40:24;93496.72;;;5.13;97.75
35888;BME280;21990;42.540;23.496;2022-12-07T00:42:50;93495.69;;;5.16;97.37
35888;BME280;21990;42.540;23.496;2022-12-07T00:45:15;93486.56;;;5.15;97.49
35888;BME280;21990;42.540;23.496;2022-12-07T00:47:41;93477.88;;;5.08;97.35
35888;BME280;21990;42.540;23.496;2022-12-07T00:50:07;93485.53;;;5.13;97.32
35888;BME280;21990;42.540;23.496;2022-12-07T00:52:32;93483.50;;;5.13;97.16
35888;BME280;21990;42.540;23.496;2022-12-07T00:54:58;93471.34;;;5.16;96.75
35888;BME280;21990;42.540;23.496;2022-12-07T00:57:23;93467.53;;;5.19;96.60
35888;BME280;21990;42.540;23.496;2022-12-07T00:59:49;93467.53;;;5.19;96.68
35888;BME280;21990;42.540;23.496;2022-12-07T01:02:14;93473.13;;;5.19;96.53
35888;BME280;21990;42.540;23.496;2022-12-07T01:04:40;93474.91;;;5.17;96.75
35888;BME280;21990;42.540;23.496;2022-12-07T01:07:05;93469.56;;;5.13;96.75
35888;BME280;21990;42.540;23.496;2022-12-07T01:09:31;93459.63;;;5.12;96.62
35888;BME280;21990;42.540;23.496;2022-12-07T01:11:56;93456.84;;;5.12;96.85
35888;BME280;21990;42.540;23.496;2022-12-07T01:14:22;93468.25;;;5.14;96.69
35888;BME280;21990;42.540;23.496;2022-12-07T01:16:47;93456.84;;;5.18;96.70
35888;BME280;21990;42.540;23.496;2022-12-07T01:19:13;93448.75;;;5.20;96.77
35888;BME280;21990;42.540;23.496;2022-12-07T01:21:39;93456.13;;;5.23;96.72
35888;BME280;21990;42.540;23.496;2022-12-07T01:24:07;93452.84;;;5.24;96.58
35888;BME280;21990;42.540;23.496;2022-12-07T01:26:32;93458.16;;;5.22;96.58
35888;BME280;21990;42.540;23.496;2022-12-07T01:28:58;93456.31;;;5.14;96.50
35888;BME280;21990;42.540;23.496;2022-12-07T01:31:27;93446.97;;;5.17;96.65
35888;BME280;21990;42.540;23.496;2022-12-07T01:33:54;93455.59;;;5.19;96.34
35888;BME280;21990;42.540;23.496;2022-12-07T01:36:23;93441.38;;;5.22;96.28
35888;BME280;21990;42.540;23.496;2022-12-07T01:38:53;93438.25;;;5.04;96.88
35888;BME280;21990;42.540;23.496;2022-12-07T01:41:23;93441.31;;;5.06;96.97
35888;BME280;21990;42.540;23.496;2022-12-07T01:46:35;93456.03;;;5.01;97.38
35888;BME280;21990;42.540;23.496;2022-12-07T01:49:02;93446.09;;;5.00;97.60
35888;BME280;21990;42.540;23.496;2022-12-07T01:51:29;93439.22;;;4.95;97.45
35888;BME280;21990;42.540;23.496;2022-12-07T01:53:55;93433.88;;;4.86;98.08
35888;BME280;21990;42.540;23.496;2022-12-07T01:56:23;93437.69;;;4.94;98.12
35888;BME280;21990;42.540;23.496;2022-12-07T01:58:51;93440.53;;;5.00;97.96
35888;BME280;21990;42.540;23.496;2022-12-07T02:01:17;93429.63;;;5.02;97.70
35888;BME280;21990;42.540;23.496;2022-12-07T02:03:44;93422.94;;;4.88;97.89
35888;BME280;21990;42.540;23.496;2022-12-07T02:06:12;93434.16;;;4.99;98.09
35888;BME280;21990;42.540;23.496;2022-12-07T02:08:40;93436.72;;;5.03;97.76
35888;BME280;21990;42.540;23.496;2022-12-07T02:11:06;93435.22;;;5.02;97.60
35888;BME280;21990;42.540;23.496;2022-12-07T02:13:35;93429.41;;;5.05;97.61
35888;BME280;21990;42.540;23.496;2022-12-07T02:21:14;93426.66;;;5.16;97.41
35888;BME280;21990;42.540;23.496;2022-12-07T02:31:48;93416.69;;;5.10;98.16
35888;BME280;21990;42.540;23.496;2022-12-07T02:34:24;93414.19;;;5.12;98.29
35888;BME280;21990;42.540;23.496;2022-12-07T02:36:55;93416.72;;;5.15;98.04
35888;BME280;21990;42.540;23.496;2022-12-07T02:39:44;93410.63;;;5.11;98.15
35888;BME280;21990;42.540;23.496;2022-12-07T02:42:17;93406.56;;;5.12;98.28
35888;BME280;21990;42.540;23.496;2022-12-07T02:44:46;93410.13;;;5.18;98.13
35888;BME280;21990;42.540;23.496;2022-12-07T02:47:14;93412.44;;;5.20;98.09
35888;BME280;21990;42.540;23.496;2022-12-07T02:49:42;93419.56;;;5.26;97.96
35888;BME280;21990;42.540;23.496;2022-12-07T02:52:08;93422.34;;;5.26;97.62
35888;BME280;21990;42.540;23.496;2022-12-07T02:54:34;93411.72;;;5.31;97.77
35888;BME280;21990;42.540;23.496;2022-12-07T03:05:27;93409.69;;;5.31;97.35
35888;BME280;21990;42.540;23.496;2022-12-07T03:16:27;93397.94;;;5.16;98.26
35888;BME280;21990;42.540;23.496;2022-12-07T03:18:59;93402.03;;;5.20;98.09
35888;BME280;21990;42.540;23.496;2022-12-07T03:21:39;93405.88;;;5.29;97.75
35888;BME280;21990;42.540;23.496;2022-12-07T03:24:13;93403.53;;;5.21;97.84
35888;BME280;21990;42.540;23.496;2022-12-07T03:26:43;93404.25;;;5.05;98.11
35888;BME280;21990;42.540;23.496;2022-12-07T03:29:19;93398.94;;;5.07;98.75
35888;BME280;21990;42.540;23.496;2022-12-07T03:31:54;93402.03;;;5.20;98.57
35888;BME280;21990;42.540;23.496;2022-12-07T03:34:35;93403.09;;;5.29;98.02
35888;BME280;21990;42.540;23.496;2022-12-07T03:37:03;93406.38;;;5.27;98.53
35888;BME280;21990;42.540;23.496;2022-12-07T03:39:37;93399.28;;;5.32;98.60
35888;BME280;21990;42.540;23.496;2022-12-07T03:42:06;93401.06;;;5.35;98.30
35888;BME280;21990;42.540;23.496;2022-12-07T03:44:34;93392.19;;;5.36;98.08
35888;BME280;21990;42.540;23.496;2022-12-07T03:47:20;93402.34;;;5.39;98.00
35888;BME280;21990;42.540;23.496;2022-12-07T03:49:53;93399.06;;;5.41;97.97
35888;BME280;21990;42.540;23.496;2022-12-07T03:52:23;93390.91;;;5.37;97.70
35888;BME280;21990;42.540;23.496;2022-12-07T03:54:58;93392.88;;;5.25;97.95
35888;BME280;21990;42.540;23.496;2022-12-07T03:57:26;93396.72;;;5.34;98.13
35888;BME280;21990;42.540;23.496;2022-12-07T03:59:55;93396.22;;;5.30;98.09
35888;BME280;21990;42.540;23.496;2022-12-07T04:02:22;93395.69;;;5.25;98.09
35888;BME280;21990;42.540;23.496;2022-12-07T04:04:49;93386.03;;;5.26;98.43
35888;BME280;21990;42.540;23.496;2022-12-07T04:07:15;93380.47;;;5.26;98.27
35888;BME280;21990;42.540;23.496;2022-12-07T04:09:40;93381.75;;;5.31;98.42
35888;BME280;21990;42.540;23.496;2022-12-07T04:12:06;93376.16;;;5.31;98.45
35888;BME280;21990;42.540;23.496;2022-12-07T04:14:31;93386.31;;;5.34;98.16
35888;BME280;21990;42.540;23.496;2022-12-07T04:16:58;93392.88;;;5.25;98.12
35888;BME280;21990;42.540;23.496;2022-12-07T04:19:26;93381.50;;;5.29;98.25
35888;BME280;21990;42.540;23.496;2022-12-07T04:21:52;93380.94;;;5.19;98.37
35888;BME280;21990;42.540;23.496;2022-12-07T04:24:18;93380.47;;;5.26;98.47
35888;BME280;21990;42.540;23.496;2022-12-07T04:26:44;93383.28;;;5.32;98.22
35888;BME280;21990;42.540;23.496;2022-12-07T04:29:10;93379.22;;;5.39;97.56
35888;BME280;21990;42.540;23.496;2022-12-07T04:31:36;93386.34;;;5.40;97.58
35888;BME280;21990;42.540;23.496;2022-12-07T04:34:02;93383.81;;;5.42;97.63
35888;BME280;21990;42.540;23.496;2022-12-07T04:36:28;93386.63;;;5.47;97.29
35888;BME280;21990;42.540;23.496;2022-12-07T04:38:54;93388.41;;;5.50;97.18
35888;BME280;21990;42.540;23.496;2022-12-07T04:41:21;93394.50;;;5.54;97.07
35888;BME280;21990;42.540;23.496;2022-12-07T04:46:19;93409.78;;;5.59;96.75
35888;BME280;21990;42.540;23.496;2022-12-07T04:48:45;93402.13;;;5.54;96.81
35888;BME280;21990;42.540;23.496;2022-12-07T04:51:10;93408.22;;;5.58;96.96
35888;BME280;21990;42.540;23.496;2022-12-07T04:53:36;93401.63;;;5.61;96.88
35888;BME280;21990;42.540;23.496;2022-12-07T04:56:01;93400.34;;;5.56;96.67
35888;BME280;21990;42.540;23.496;2022-12-07T04:58:26;93394.25;;;5.58;96.85
35888;BME280;21990;42.540;23.496;2022-12-07T05:00:55;93390.44;;;5.61;96.75
35888;BME280;21990;42.540;23.496;2022-12-07T05:03:21;93396.81;;;5.61;96.52
35888;BME280;21990;42.540;23.496;2022-12-07T05:05:46;93394.00;;;5.56;96.49
35888;BME280;21990;42.540;23.496;2022-12-07T05:08:12;93391.72;;;5.54;95.90
35888;BME280;21990;42.540;23.496;2022-12-07T05:10:37;93391.47;;;5.52;96.19
35888;BME280;21990;42.540;23.496;2022-12-07T05:13:02;93397.81;;;5.58;95.96
35888;BME280;21990;42.540;23.496;2022-12-07T05:15:28;93397.31;;;5.60;95.75
35888;BME280;21990;42.540;23.496;2022-12-07T05:17:53;93391.22;;;5.61;95.69
35888;BME280;21990;42.540;23.496;2022-12-07T05:20:19;93394.00;;;5.61;95.82
35888;BME280;21990;42.540;23.496;2022-12-07T05:22:44;93390.97;;;5.65;95.28
35888;BME280;21990;42.540;23.496;2022-12-07T05:25:10;93395.06;;;5.64;95.18
35888;BME280;21990;42.540;23.496;2022-12-07T05:27:35;93392.47;;;5.60;95.50
35888;BME280;21990;42.540;23.496;2022-12-07T05:30:01;93392.50;;;5.66;95.52
35888;BME280;21990;42.540;23.496;2022-12-07T05:32:26;93387.41;;;5.64;95.59
35888;BME280;21990;42.540;23.496;2022-12-07T05:34:52;93391.22;;;5.61;95.65
35888;BME280;21990;42.540;23.496;2022-12-07T05:37:20;93389.69;;;5.55;95.92
35888;BME280;21990;42.540;23.496;2022-12-07T05:39:45;93391.47;;;5.58;96.17
35888;BME280;21990;42.540;23.496;2022-12-07T05:42:11;93391.50;;;5.63;95.98
35888;BME280;21990;42.540;23.496;2022-12-07T05:44:40;93390.72;;;5.63;95.89
35888;BME280;21990;42.540;23.496;2022-12-07T05:47:06;93392.25;;;5.64;95.68
35888;BME280;21990;42.540;23.496;2022-12-07T05:49:31;93400.88;;;5.66;95.73
35888;BME280;21990;42.540;23.496;2022-12-07T05:51:57;93391.25;;;5.67;95.44
35888;BME280;21990;42.540;23.496;2022-12-07T05:54:23;93393.00;;;5.64;95.52
35888;BME280;21990;42.540;23.496;2022-12-07T05:56:48;93392.78;;;5.68;95.22
35888;BME280;21990;42.540;23.496;2022-12-07T05:59:14;93385.88;;;5.69;95.10
35888;BME280;21990;42.540;23.496;2022-12-07T06:01:56;93393.53;;;5.63;95.19
35888;BME280;21990;42.540;23.496;2022-12-07T06:04:23;93394.00;;;5.61;95.38
35888;BME280;21990;42.540;23.496;2022-12-07T06:06:49;93391.72;;;5.54;95.78
35888;BME280;21990;42.540;23.496;2022-12-07T06:09:16;93396.25;;;5.46;95.95
35888;BME280;21990;42.540;23.496;2022-12-07T06:11:44;93390.19;;;5.48;96.49
35888;BME280;21990;42.540;23.496;2022-12-07T06:14:28;93386.63;;;5.53;96.80
35888;BME280;21990;42.540;23.496;2022-12-07T06:16:54;93389.69;;;5.60;96.56
35888;BME280;21990;42.540;23.496;2022-12-07T06:19:19;93380.56;;;5.60;96.71
35888;BME280;21990;42.540;23.496;2022-12-07T06:21:45;93387.41;;;5.64;96.59
35888;BME280;21990;42.540;23.496;2022-12-07T06:24:12;93387.94;;;5.63;96.26
35888;BME280;21990;42.540;23.496;2022-12-07T06:26:38;93389.97;;;5.62;96.25
35888;BME280;21990;42.540;23.496;2022-12-07T06:29:03;93392.22;;;5.53;95.77
35888;BME280;21990;42.540;23.496;2022-12-07T06:31:29;93387.38;;;5.37;96.48
35888;BME280;21990;42.540;23.496;2022-12-07T06:34:04;93387.13;;;5.46;96.49
35888;BME280;21990;42.540;23.496;2022-12-07T06:36:30;93388.44;;;5.56;96.41
35888;BME280;21990;42.540;23.496;2022-12-07T06:38:56;93396.31;;;5.63;95.92
35888;BME280;21990;42.540;23.496;2022-12-07T06:41:22;93389.72;;;5.66;95.84
35888;BME280;21990;42.540;23.496;2022-12-07T06:43:47;93395.03;;;5.69;95.80
35888;BME280;21990;42.540;23.496;2022-12-07T06:46:14;93403.94;;;5.73;95.90
35888;BME280;21990;42.540;23.496;2022-12-07T06:48:40;93407.25;;;5.78;95.52
35888;BME280;21990;42.540;23.496;2022-12-07T06:51:06;93410.56;;;5.76;95.56
35888;BME280;21990;42.540;23.496;2022-12-07T06:53:32;93399.88;;;5.74;95.54
35888;BME280;21990;42.540;23.496;2022-12-07T06:55:57;93404.22;;;5.76;95.72
35888;BME280;21990;42.540;23.496;2022-12-07T06:58:23;93401.66;;;5.78;95.78
35888;BME280;21990;42.540;23.496;2022-12-07T07:00:49;93405.22;;;5.78;95.95
35888;BME280;21990;42.540;23.496;2022-12-07T07:03:15;93401.91;;;5.74;95.73
35888;BME280;21990;42.540;23.496;2022-12-07T07:05:42;93399.63;;;5.78;95.85
35888;BME280;21990;42.540;23.496;2022-12-07T07:08:08;93398.38;;;5.68;96.15
35888;BME280;21990;42.540;23.496;2022-12-07T07:10:33;93406.25;;;5.75;96.47
35888;BME280;21990;42.540;23.496;2022-12-07T07:12:59;93402.19;;;5.82;96.40
35888;BME280;21990;42.540;23.496;2022-12-07T07:15:25;93401.22;;;5.90;96.72
35888;BME280;21990;42.540;23.496;2022-12-07T07:17:50;93400.19;;;5.93;96.55
35888;BME280;21990;42.540;23.496;2022-12-07T07:20:16;93405.28;;;6.00;96.34
35888;BME280;21990;42.540;23.496;2022-12-07T07:22:41;93403.00;;;5.99;96.22
35888;BME280;21990;42.540;23.496;2022-12-07T07:25:07;93409.34;;;6.05;96.47
35888;BME280;21990;42.540;23.496;2022-12-07T07:27:33;93404.78;;;6.07;96.25
35888;BME280;21990;42.540;23.496;2022-12-07T07:29:58;93415.47;;;6.09;96.35
35888;BME280;21990;42.540;23.496;2022-12-07T07:32:24;93406.03;;;6.01;96.17
35888;BME280;21990;42.540;23.496;2022-12-07T07:34:49;93410.63;;;6.04;96.17
35888;BME280;21990;42.540;23.496;2022-12-07T07:37:15;93413.44;;;6.09;96.41
35888;BME280;21990;42.540;23.496;2022-12-07T07:39:40;93410.38;;;6.13;95.73
35888;BME280;21990;42.540;23.496;2022-12-07T07:42:06;93414.72;;;6.14;95.72
35888;BME280;21990;42.540;23.496;2022-12-07T07:44:33;93414.44;;;6.12;95.82
35888;BME280;21990;42.540;23.496;2022-12-07T07:46:59;93418.00;;;6.24;95.92
35888;BME280;21990;42.540;23.496;2022-12-07T07:49:25;93421.31;;;6.28;95.73
35888;BME280;21990;42.540;23.496;2022-12-07T07:51:51;93412.16;;;6.22;95.75
35888;BME280;21990;42.540;23.496;2022-12-07T07:54:17;93409.13;;;6.25;95.53
35888;BME280;21990;42.540;23.496;2022-12-07T07:56:42;93411.91;;;6.36;95.67
35888;BME280;21990;42.540;23.496;2022-12-07T07:59:08;93410.38;;;6.35;95.71
35888;BME280;21990;42.540;23.496;2022-12-07T08:01:34;93402.50;;;6.34;95.66
35888;BME280;21990;42.540;23.496;2022-12-07T08:04:00;93409.34;;;6.38;96.04
35888;BME280;21990;42.540;23.496;2022-12-07T08:06:25;93408.84;;;6.40;95.57
35888;BME280;21990;42.540;23.496;2022-12-07T08:08:52;93414.22;;;6.38;94.99
35888;BME280;21990;42.540;23.496;2022-12-07T08:11:17;93408.84;;;6.23;95.05
35888;BME280;21990;42.540;23.496;2022-12-07T08:13:45;93410.88;;;6.22;95.69
35888;BME280;21990;42.540;23.496;2022-12-07T08:16:12;93408.09;;;6.34;96.86
35888;BME280;21990;42.540;23.496;2022-12-07T08:18:39;93402.25;;;6.37;95.51
35888;BME280;21990;42.540;23.496;2022-12-07T08:21:06;93409.63;;;6.40;95.70
35888;BME280;21990;42.540;23.496;2022-12-07T08:23:32;93404.75;;;6.46;94.06
35888;BME280;21990;42.540;23.496;2022-12-07T08:26:07;93403.75;;;6.55;93.41
35888;BME280;21990;42.540;23.496;2022-12-07T08:28:33;93407.56;;;6.52;93.77
35888;BME280;21990;42.540;23.496;2022-12-07T08:31:00;93408.84;;;6.51;94.72
35888;BME280;21990;42.540;23.496;2022-12-07T08:33:27;93411.13;;;6.63;94.83
35888;BME280;21990;42.540;23.496;2022-12-07T08:35:52;93399.66;;;6.67;94.62
35888;BME280;21990;42.540;23.496;2022-12-07T08:38:18;93401.41;;;6.81;94.00
35888;BME280;21990;42.540;23.496;2022-12-07T08:40:43;93395.53;;;6.90;92.97
35888;BME280;21990;42.540;23.496;2022-12-07T08:43:09;93400.91;;;6.88;93.19
35888;BME280;21990;42.540;23.496;2022-12-07T08:45:34;93392.00;;;6.73;92.91
35888;BME280;21990;42.540;23.496;2022-12-07T08:48:08;93395.06;;;6.81;92.58
35888;BME280;21990;42.540;23.496;2022-12-07T08:50:36;93393.72;;;6.93;93.77
35888;BME280;21990;42.540;23.496;2022-12-07T08:53:03;93385.81;;;7.02;92.46
35888;BME280;21990;42.540;23.496;2022-12-07T08:55:30;93384.25;;;7.12;93.57
35888;BME280;21990;42.540;23.496;2022-12-07T08:58:00;93383.16;;;7.32;95.57
35888;BME280;21990;42.540;23.496;2022-12-07T09:00:27;93379.44;;;7.59;95.72
35888;BME280;21990;42.540;23.496;2022-12-07T09:02:53;93374.75;;;7.79;92.80
35888;BME280;21990;42.540;23.496;2022-12-07T09:05:19;93372.91;;;7.87;91.57
35888;BME280;21990;42.540;23.496;2022-12-07T09:07:48;93367.06;;;7.85;89.64
35888;BME280;21990;42.540;23.496;2022-12-07T09:10:15;93368.84;;;7.82;89.44
35888;BME280;21990;42.540;23.496;2022-12-07T09:12:40;93360.44;;;7.82;88.91
35888;BME280;21990;42.540;23.496;2022-12-07T09:15:06;93356.28;;;7.94;89.15
35888;BME280;21990;42.540;23.496;2022-12-07T09:17:33;93351.13;;;8.04;90.01
35888;BME280;21990;42.540;23.496;2022-12-07T09:19:59;93353.66;;;8.02;89.07
35888;BME280;21990;42.540;23.496;2022-12-07T09:22:30;93347.16;;;8.18;90.49
35888;BME280;21990;42.540;23.496;2022-12-07T09:24:59;93334.59;;;8.30;88.79
35888;BME280;21990;42.540;23.496;2022-12-07T09:27:26;93342.28;;;8.54;89.64
35888;BME280;21990;42.540;23.496;2022-12-07T09:29:52;93333.16;;;8.72;90.18
35888;BME280;21990;42.540;23.496;2022-12-07T09:32:17;93335.31;;;8.85;88.21
35888;BME280;21990;42.540;23.496;2022-12-07T09:34:43;93331.28;;;8.80;86.84
35888;BME280;21990;42.540;23.496;2022-12-07T09:37:09;93329.19;;;8.86;87.48
35888;BME280;21990;42.540;23.496;2022-12-07T09:39:37;93312.50;;;8.94;86.50
35888;BME280;21990;42.540;23.496;2022-12-07T09:42:03;93316.28;;;8.96;86.30
35888;BME280;21990;42.540;23.496;2022-12-07T09:44:30;93329.97;;;8.87;85.87
35888;BME280;21990;42.540;23.496;2022-12-07T09:46:57;93317.97;;;9.05;85.58
35888;BME280;21990;42.540;23.496;2022-12-07T09:49:24;93308.59;;;9.21;85.96
35888;BME280;21990;42.540;23.496;2022-12-07T09:54:30;93306.84;;;9.37;84.08
35888;BME280;21990;42.540;23.496;2022-12-07T09:56:56;93307.78;;;9.45;84.26
35888;BME280;21990;42.540;23.496;2022-12-07T09:59:22;93303.22;;;9.61;85.89
35888;BME280;21990;42.540;23.496;2022-12-07T10:01:49;93296.88;;;9.73;83.13
35888;BME280;21990;42.540;23.496;2022-12-07T10:04:20;93301.97;;;9.75;82.68
35888;BME280;21990;42.540;23.496;2022-12-07T10:06:47;93304.13;;;9.69;82.27
35888;BME280;21990;42.540;23.496;2022-12-07T10:09:15;93297.09;;;9.75;83.22
35888;BME280;21990;42.540;23.496;2022-12-07T10:12:07;93289.88;;;9.80;82.14
35888;BME280;21990;42.540;23.496;2022-12-07T10:14:37;93281.38;;;9.67;81.81
35888;BME280;21990;42.540;23.496;2022-12-07T10:20:12;93280.25;;;9.57;82.40
35888;BME280;21990;42.540;23.496;2022-12-07T10:22:38;93273.06;;;9.74;82.70
35888;BME280;21990;42.540;23.496;2022-12-07T10:25:19;93266.81;;;9.81;82.15
35888;BME280;21990;42.540;23.496;2022-12-07T10:28:00;93261.50;;;9.78;81.32
35888;BME280;21990;42.540;23.496;2022-12-07T10:30:26;93264.44;;;9.85;80.44
35888;BME280;21990;42.540;23.496;2022-12-07T10:32:52;93258.63;;;9.83;81.04
35888;BME280;21990;42.540;23.496;2022-12-07T10:35:26;93250.31;;;9.91;81.90
35888;BME280;21990;42.540;23.496;2022-12-07T10:37:54;93247.31;;;10.02;81.02
35888;BME280;21990;42.540;23.496;2022-12-07T10:40:35;93251.44;;;10.14;81.01
35888;BME280;21990;42.540;23.496;2022-12-07T10:43:15;93243.84;;;10.09;81.03
35888;BME280;21990;42.540;23.496;2022-12-07T10:48:39;93246.09;;;10.29;80.86
35888;BME280;21990;42.540;23.496;2022-12-07T10:59:53;93246.03;;;10.61;79.60
35888;BME280;21990;42.540;23.496;2022-12-07T11:02:43;93235.97;;;10.66;79.95
35888;BME280;21990;42.540;23.496;2022-12-07T11:08:09;93236.16;;;10.81;80.29
35888;BME280;21990;42.540;23.496;2022-12-07T11:13:25;93222.03;;;10.94;79.41
35888;BME280;21990;42.540;23.496;2022-12-07T11:19:28;93222.19;;;10.75;77.93
35888;BME280;21990;42.540;23.496;2022-12-07T11:22:02;93218.06;;;10.63;78.26
35888;BME280;21990;42.540;23.496;2022-12-07T11:24:50;93216.31;;;10.60;77.71
35888;BME280;21990;42.540;23.496;2022-12-07T11:27:51;93208.09;;;10.49;79.38
35888;BME280;21990;42.540;23.496;2022-12-07T11:38:15;93184.16;;;10.42;79.40
35888;BME280;21990;42.540;23.496;2022-12-07T11:40:45;93185.00;;;10.51;79.59
35888;BME280;21990;42.540;23.496;2022-12-07T11:45:47;93183.59;;;10.44;79.14
35888;BME280;21990;42.540;23.496;2022-12-07T11:48:29;93170.72;;;10.48;79.35
35888;BME280;21990;42.540;23.496;2022-12-07T11:50:57;93174.72;;;10.53;79.77
35888;BME280;21990;42.540;23.496;2022-12-07T11:56:12;93168.97;;;10.32;79.06
35888;BME280;21990;42.540;23.496;2022-12-07T12:06:43;93164.28;;;10.09;81.46
35888;BME280;21990;42.540;23.496;2022-12-07T12:14:58;93160.50;;;10.06;81.56
35888;BME280;21990;42.540;23.496;2022-12-07T12:25:27;93150.41;;;9.97;81.15
35888;BME280;21990;42.540;23.496;2022-12-07T12:27:55;93151.47;;;9.94;81.31
35888;BME280;21990;42.540;23.496;2022-12-07T12:30:36;93148.47;;;10.06;81.20
35888;BME280;21990;42.540;23.496;2022-12-07T12:33:14;93151.97;;;10.25;79.31
35888;BME280;21990;42.540;23.496;2022-12-07T12:35:42;93139.09;;;10.29;79.36
35888;BME280;21990;42.540;23.496;2022-12-07T12:38:34;93142.00;;;10.37;79.08
35888;BME280;21990;42.540;23.496;2022-12-07T12:46:48;93121.22;;;10.40;79.19
35888;BME280;21990;42.540;23.496;2022-12-07T12:51:50;93126.19;;;10.47;79.39
35888;BME280;21990;42.540;23.496;2022-12-07T12:57:04;93130.72;;;10.63;77.50
35888;BME280;21990;42.540;23.496;2022-12-07T12:59:42;93129.50;;;10.72;77.90
35888;BME280;21990;42.540;23.496;2022-12-07T13:02:29;93126.78;;;10.79;76.90
35888;BME280;21990;42.540;23.496;2022-12-07T13:04:59;93121.25;;;10.87;76.99
35888;BME280;21990;42.540;23.496;2022-12-07T13:18:04;93117.81;;;10.68;76.74
35888;BME280;21990;42.540;23.496;2022-12-07T13:20:45;93121.81;;;10.72;76.78
35888;BME280;21990;42.540;23.496;2022-12-07T13:23:12;93129.59;;;10.79;76.22
35888;BME280;21990;42.540;23.496;2022-12-07T13:26:36;93119.25;;;10.61;77.30
35888;BME280;21990;42.540;23.496;2022-12-07T13:28:39;93126.06;;;10.66;77.25
35888;BME280;21990;42.540;23.496;2022-12-07T13:33:43;93132.13;;;10.57;77.17
35888;BME280;21990;42.540;23.496;2022-12-07T13:36:20;93129.66;;;10.53;77.14
35888;BME280;21990;42.540;23.496;2022-12-07T13:39:01;93120.78;;;10.49;77.50
35888;BME280;21990;42.540;23.496;2022-12-07T13:41:35;93120.13;;;10.43;77.83
35888;BME280;21990;42.540;23.496;2022-12-07T13:44:07;93121.53;;;10.36;78.56
35888;BME280;21990;42.540;23.496;2022-12-07T13:49:16;93129.00;;;10.47;79.10
35888;BME280;21990;42.540;23.496;2022-12-07T13:51:42;93125.66;;;10.48;78.59
35888;BME280;21990;42.540;23.496;2022-12-07T13:54:12;93116.34;;;10.54;78.44
35888;BME280;21990;42.540;23.496;2022-12-07T13:56:38;93123.34;;;10.60;78.44
35888;BME280;21990;42.540;23.496;2022-12-07T13:59:16;93106.25;;;10.58;78.61
35888;BME280;21990;42.540;23.496;2022-12-07T14:01:42;93114.28;;;10.54;78.33
35888;BME280;21990;42.540;23.496;2022-12-07T14:06:52;93130.31;;;10.33;77.62
35888;BME280;21990;42.540;23.496;2022-12-07T14:09:23;93125.88;;;10.24;78.17
35888;BME280;21990;42.540;23.496;2022-12-07T14:11:50;93119.38;;;10.16;78.40
35888;BME280;21990;42.540;23.496;2022-12-07T14:14:19;93120.69;;;10.15;78.53
35888;BME280;21990;42.540;23.496;2022-12-07T14:16:56;93129.72;;;10.08;78.90
35888;BME280;21990;42.540;23.496;2022-12-07T14:19:45;93137.97;;;10.06;79.09
35888;BME280;21990;42.540;23.496;2022-12-07T14:22:34;93142.31;;;10.07;78.65
35888;BME280;21990;42.540;23.496;2022-12-07T14:25:23;93133.72;;;9.86;79.04
35888;BME280;21990;42.540;23.496;2022-12-07T14:27:50;93128.63;;;9.85;79.24
35888;BME280;21990;42.540;23.496;2022-12-07T14:30:17;93123.06;;;9.66;79.96
35888;BME280;21990;42.540;23.496;2022-12-07T14:32:43;93130.59;;;9.45;80.87
35888;BME280;21990;42.540;23.496;2022-12-07T14:35:15;93123.97;;;9.42;81.07
35888;BME280;21990;42.540;23.496;2022-12-07T14:37:42;93126.72;;;9.48;80.80
35888;BME280;21990;42.540;23.496;2022-12-07T14:40:13;93122.94;;;9.59;80.51
35888;BME280;21990;42.540;23.496;2022-12-07T14:42:39;93127.78;;;9.45;80.52
35888;BME280;21990;42.540;23.496;2022-12-07T14:45:05;93128.41;;;9.38;80.88
35888;BME280;21990;42.540;23.496;2022-12-07T14:47:31;93135.81;;;9.22;81.67
35888;BME280;21990;42.540;23.496;2022-12-07T14:49:57;93136.81;;;9.25;81.72
35888;BME280;21990;42.540;23.496;2022-12-07T14:52:28;93141.69;;;9.05;82.04
35888;BME280;21990;42.540;23.496;2022-12-07T14:54:55;93145.50;;;8.89;83.11
35888;BME280;21990;42.540;23.496;2022-12-07T14:57:21;93143.00;;;8.86;83.23
35888;BME280;21990;42.540;23.496;2022-12-07T14:59:46;93152.41;;;8.70;83.77
35888;BME280;21990;42.540;23.496;2022-12-07T15:02:13;93153.19;;;8.70;83.64
35888;BME280;21990;42.540;23.496;2022-12-07T15:04:39;93163.41;;;8.68;83.60
35888;BME280;21990;42.540;23.496;2022-12-07T15:07:09;93166.59;;;8.58;84.12
35888;BME280;21990;42.540;23.496;2022-12-07T15:09:36;93169.72;;;8.55;84.49
35888;BME280;21990;42.540;23.496;2022-12-07T15:12:01;93169.78;;;8.49;85.02